地図

経路データ

SID SEASON NUMBER BASIN SUBBASIN NAME ISO_TIME NATURE LAT LON WMO_WIND WMO_PRES WMO_AGENCY TRACK_TYPE DIST2LAND LANDFALL IFLAG USA_AGENCY USA_ATCF_ID USA_LAT USA_LON USA_RECORD USA_STATUS USA_WIND USA_PRES USA_SSHS USA_R34_NE USA_R34_SE USA_R34_SW USA_R34_NW USA_R50_NE USA_R50_SE USA_R50_SW USA_R50_NW USA_R64_NE USA_R64_SE USA_R64_SW USA_R64_NW USA_POCI USA_ROCI USA_RMW USA_EYE TOKYO_LAT TOKYO_LON TOKYO_GRADE TOKYO_WIND TOKYO_PRES TOKYO_R50_DIR TOKYO_R50_LONG TOKYO_R50_SHORT TOKYO_R30_DIR TOKYO_R30_LONG TOKYO_R30_SHORT TOKYO_LAND CMA_LAT CMA_LON CMA_CAT CMA_WIND CMA_PRES HKO_LAT HKO_LON HKO_CAT HKO_WIND HKO_PRES NEWDELHI_LAT NEWDELHI_LON NEWDELHI_GRADE NEWDELHI_WIND NEWDELHI_PRES NEWDELHI_CI NEWDELHI_DP NEWDELHI_POCI REUNION_LAT REUNION_LON REUNION_TYPE REUNION_WIND REUNION_PRES REUNION_TNUM REUNION_CI REUNION_RMW REUNION_R34_NE REUNION_R34_SE REUNION_R34_SW REUNION_R34_NW REUNION_R50_NE REUNION_R50_SE REUNION_R50_SW REUNION_R50_NW REUNION_R64_NE REUNION_R64_SE REUNION_R64_SW REUNION_R64_NW BOM_LAT BOM_LON BOM_TYPE BOM_WIND BOM_PRES BOM_TNUM BOM_CI BOM_RMW BOM_R34_NE BOM_R34_SE BOM_R34_SW BOM_R34_NW BOM_R50_NE BOM_R50_SE BOM_R50_SW BOM_R50_NW BOM_R64_NE BOM_R64_SE BOM_R64_SW BOM_R64_NW BOM_ROCI BOM_POCI BOM_EYE BOM_POS_METHOD BOM_PRES_METHOD NADI_LAT NADI_LON NADI_CAT NADI_WIND NADI_PRES WELLINGTON_LAT WELLINGTON_LON WELLINGTON_WIND WELLINGTON_PRES DS824_LAT DS824_LON DS824_STAGE DS824_WIND DS824_PRES TD9636_LAT TD9636_LON TD9636_STAGE TD9636_WIND TD9636_PRES TD9635_LAT TD9635_LON TD9635_WIND TD9635_PRES TD9635_ROCI NEUMANN_LAT NEUMANN_LON NEUMANN_CLASS NEUMANN_WIND NEUMANN_PRES MLC_LAT MLC_LON MLC_CLASS MLC_WIND MLC_PRES USA_GUST BOM_GUST BOM_GUST_PER REUNION_GUST REUNION_GUST_PER USA_SEAHGT USA_SEARAD_NE USA_SEARAD_SE USA_SEARAD_SW USA_SEARAD_NW STORM_SPEED STORM_DIR
1898178N16129 1898 17 WP MM NOT_NAMED 1898-06-27 04:00:00 NR 16.3000 128.700 main 534 530 __________O___ -1 16.3000 128.700 7 10 330
1898178N16129 1898 17 WP MM NOT_NAMED 1898-06-27 06:00:00 NR 16.5944 128.521 main 533 531 __________P___ -1 16.5944 128.521 7 10 330
1898178N16129 1898 17 WP MM NOT_NAMED 1898-06-27 09:00:00 NR 17.0317 128.257 main 543 541 __________P___ -1 17.0317 128.257 7 10 330
1898178N16129 1898 17 WP MM NOT_NAMED 1898-06-27 12:00:00 NR 17.4583 128.005 main 557 557 __________P___ -1 17.4583 128.005 7 10 331
1898178N16129 1898 17 WP MM NOT_NAMED 1898-06-27 15:00:00 NR 17.8682 127.772 main 571 560 __________P___ -1 17.8682 127.772 7 9 332
1898178N16129 1898 17 WP MM NOT_NAMED 1898-06-27 16:00:00 NR 18.0000 127.700 main 562 554 __________O___ -1 18.0000 127.700 7 9 333
1898178N16129 1898 17 WP MM NOT_NAMED 1898-06-27 18:00:00 NR 18.2560 127.566 main 559 538 __________P___ -1 18.2560 127.566 7 8 334
1898178N16129 1898 17 WP MM NOT_NAMED 1898-06-27 21:00:00 NR 18.6275 127.384 main 538 519 __________P___ -1 18.6275 127.384 7 8 336
1898178N16129 1898 17 WP MM NOT_NAMED 1898-06-28 00:00:00 NR 18.9949 127.216 main 520 513 __________P___ -1 18.9949 127.216 7 8 337
1898178N16129 1898 17 WP MM NOT_NAMED 1898-06-28 03:00:00 NR 19.3707 127.054 main 517 506 __________P___ -1 19.3707 127.054 7 8 338
1898178N16129 1898 17 WP MM NOT_NAMED 1898-06-28 04:00:00 NR 19.5000 127.000 main 509 501 __________O___ -1 19.5000 127.000 7 9 338
1898178N16129 1898 17 WP MM NOT_NAMED 1898-06-28 06:00:00 NR 19.7719 126.883 main 508 499 __________P___ -1 19.7719 126.883 7 9 338
1898178N16129 1898 17 WP MM NOT_NAMED 1898-06-28 09:00:00 NR 20.1923 126.708 main 503 498 __________P___ -1 20.1923 126.708 7 9 339
1898178N16129 1898 17 WP MM NOT_NAMED 1898-06-28 12:00:00 NR 20.6224 126.533 main 504 504 __________P___ -1 20.6224 126.533 7 9 339
1898178N16129 1898 17 WP MM NOT_NAMED 1898-06-28 15:00:00 NR 21.0559 126.358 main 524 516 __________P___ -1 21.0559 126.358 7 9 339
1898178N16129 1898 17 WP MM NOT_NAMED 1898-06-28 16:00:00 NR 21.2000 126.300 main 522 521 __________O___ -1 21.2000 126.300 7 9 338
1898178N16129 1898 17 WP MM NOT_NAMED 1898-06-28 18:00:00 NR 21.4702 126.178 main 525 491 __________P___ -1 21.4702 126.178 7 9 337
1898178N16129 1898 17 WP MM NOT_NAMED 1898-06-28 21:00:00 NR 21.8753 125.995 main 491 459 __________P___ -1 21.8753 125.995 7 9 338
1898178N16129 1898 17 WP MM NOT_NAMED 1898-06-29 00:00:00 NR 22.2939 125.817 main 459 436 __________P___ -1 22.2939 125.817 7 9 340
1898178N16129 1898 17 WP MM NOT_NAMED 1898-06-29 03:00:00 NR 22.7416 125.652 main 436 416 __________P___ -1 22.7416 125.652 7 10 341
1898178N16129 1898 17 WP MM NOT_NAMED 1898-06-29 04:00:00 NR 22.9000 125.600 main 416 393 __________O___ -1 22.9000 125.600 4 10 345
1898178N16129 1898 17 WP MM NOT_NAMED 1898-06-29 06:00:00 NR 23.2381 125.502 main 393 363 __________P___ -1 23.2381 125.502 4 11 346
1898178N16129 1898 17 WP MM NOT_NAMED 1898-06-29 09:00:00 NR 23.7768 125.369 main 363 332 __________P___ -1 23.7768 125.369 4 11 348
1898178N16129 1898 17 WP MM NOT_NAMED 1898-06-29 12:00:00 NR 24.3395 125.248 main 332 312 __________P___ -1 24.3395 125.248 4 12 349
1898178N16129 1898 17 WP MM NOT_NAMED 1898-06-29 15:00:00 NR 24.9105 125.136 main 312 312 __________P___ -1 24.9105 125.136 4 12 350
1898178N16129 1898 17 WP MM NOT_NAMED 1898-06-29 16:00:00 NR 25.1000 125.100 main 312 304 __________O___ -1 25.1000 125.100 4 12 350
1898178N16129 1898 17 WP MM NOT_NAMED 1898-06-29 18:00:00 NR 25.4751 125.030 main 306 306 __________P___ -1 25.4751 125.030 4 11 351
1898178N16129 1898 17 WP MM NOT_NAMED 1898-06-29 21:00:00 NR 26.0295 124.929 main 311 315 __________P___ -1 26.0295 124.929 4 11 351
1898178N16129 1898 17 WP MM NOT_NAMED 1898-06-30 00:00:00 NR 26.5766 124.830 main 332 332 __________P___ -1 26.5766 124.830 4 11 351
1898178N16129 1898 17 WP MM NOT_NAMED 1898-06-30 03:00:00 NR 27.1194 124.733 main 333 324 __________P___ -1 27.1194 124.733 4 11 351
1898178N16129 1898 17 WP MM NOT_NAMED 1898-06-30 04:00:00 NR 27.3000 124.700 main 324 __________O___ -1 27.3000 124.700 4 11 347

デジタル台風データ・検索

IBTrACS Databaseについて

本データベースは、米国NOAAが公開する1842年以降の世界の熱帯低気圧のベストトラックデータアーカイブInternational Best Track Archive for Climate Stewardship (IBTrACS)を、ウェブで閲覧しやすい形式に変換したものです。

最終更新日:2021-11-26